createdAt,value
2022-09-20T00:02:09.610Z,60.58
2022-09-20T00:04:36.551Z,60.31
2022-09-20T00:07:03.581Z,59.95
2022-09-20T00:09:30.538Z,58.97
2022-09-20T00:11:57.437Z,59.39
2022-09-20T00:14:24.294Z,59.94
2022-09-20T00:16:51.439Z,60.04
2022-09-20T00:19:21.658Z,60.29
2022-09-20T00:21:48.607Z,60.17
2022-09-20T00:24:16.178Z,61.03
2022-09-20T00:26:43.265Z,59.61
2022-09-20T00:29:10.206Z,59.49
2022-09-20T00:31:39.219Z,59.36
2022-09-20T00:34:24.519Z,58.95
2022-09-20T00:36:51.443Z,58.81
2022-09-20T00:39:18.328Z,58.23
2022-09-20T00:41:45.882Z,58.21
2022-09-20T00:44:40.789Z,60.07
2022-09-20T00:47:14.380Z,61.31
2022-09-20T00:49:41.476Z,60.53
2022-09-20T00:52:08.915Z,61.04
2022-09-20T00:54:36.615Z,62.10
2022-09-20T00:57:04.415Z,62.40
2022-09-20T00:59:38.908Z,63.49
2022-09-20T01:02:20.468Z,64.06
2022-09-20T01:04:48.766Z,64.12
2022-09-20T01:07:18.308Z,64.87
2022-09-20T01:09:45.342Z,64.86
2022-09-20T01:12:16.480Z,64.63
2022-09-20T01:14:45.269Z,63.74
2022-09-20T01:17:13.959Z,63.80
2022-09-20T01:19:53.978Z,64.40
2022-09-20T01:22:52.053Z,64.71
2022-09-20T01:25:24.804Z,65.27
2022-09-20T01:27:54.164Z,65.75
2022-09-20T01:30:24.593Z,65.69
2022-09-20T01:33:14.677Z,64.83
2022-09-20T01:35:44.893Z,64.85
2022-09-20T01:38:40.381Z,66.31
2022-09-20T01:41:24.677Z,66.31
2022-09-20T01:44:31.055Z,64.83
2022-09-20T01:47:03.361Z,64.21
2022-09-20T01:49:52.942Z,63.27
2022-09-20T01:52:41.318Z,62.97
2022-09-20T01:55:46.108Z,62.26
2022-09-20T01:58:43.910Z,62.22
2022-09-20T02:01:16.578Z,61.03
2022-09-20T02:04:11.218Z,60.47
2022-09-20T02:06:57.248Z,60.20
2022-09-20T02:09:52.227Z,60.50
2022-09-20T02:12:54.405Z,60.41
2022-09-20T02:16:05.793Z,60.11
2022-09-20T02:18:32.674Z,60.85
2022-09-20T02:21:40.480Z,61.74
2022-09-20T02:24:25.701Z,63.38
2022-09-20T02:27:31.422Z,64.20
2022-09-20T02:30:27.561Z,63.59
2022-09-20T02:33:06.533Z,63.86
2022-09-20T02:35:45.533Z,64.05
2022-09-20T02:38:33.569Z,63.51
2022-09-20T02:41:06.562Z,63.60
2022-09-20T02:43:54.233Z,63.67
2022-09-20T02:46:38.935Z,63.13
2022-09-20T02:49:28.539Z,64.22
2022-09-20T02:52:06.815Z,64.00
2022-09-20T02:54:54.187Z,62.99
2022-09-20T02:57:44.953Z,63.76
2022-09-20T03:00:23.843Z,62.85
2022-09-20T03:02:56.555Z,63.21
2022-09-20T03:05:36.849Z,63.40
2022-09-20T03:08:38.207Z,64.43
2022-09-20T03:11:20.013Z,63.77
2022-09-20T03:13:46.857Z,63.64
2022-09-20T03:16:26.118Z,65.66
2022-09-20T03:19:23.761Z,65.61
2022-09-20T03:22:23.170Z,65.35
2022-09-20T03:25:05.131Z,64.27
2022-09-20T03:27:58.548Z,64.08
2022-09-20T03:30:59.437Z,64.99
2022-09-20T03:33:35.450Z,65.85
2022-09-20T03:36:30.195Z,65.72
2022-09-20T03:39:34.444Z,66.22
2022-09-20T03:42:11.142Z,66.63
2022-09-20T03:44:50.052Z,66.66
2022-09-20T03:47:25.969Z,66.96
2022-09-20T03:50:22.463Z,66.51
2022-09-20T03:53:17.008Z,65.56
2022-09-20T03:55:53.621Z,65.55
2022-09-20T03:58:42.223Z,65.88
2022-09-20T04:01:14.986Z,65.25
2022-09-20T04:03:57.404Z,67.25
2022-09-20T04:06:39.707Z,67.54
2022-09-20T04:09:35.156Z,67.73
2022-09-20T04:12:11.124Z,68.05
2022-09-20T04:14:51.402Z,69.16
2022-09-20T04:17:21.150Z,68.24
2022-09-20T04:20:12.095Z,69.00
2022-09-20T04:22:42.508Z,67.20
2022-09-20T04:25:23.812Z,67.90
2022-09-20T04:27:55.158Z,66.95
2022-09-20T04:30:29.961Z,67.59
2022-09-20T04:33:21.119Z,68.81
2022-09-20T04:36:30.512Z,68.05
2022-09-20T04:39:11.727Z,67.71
2022-09-20T04:42:00.159Z,67.28
2022-09-20T04:44:55.218Z,67.52
2022-09-20T04:48:00.943Z,66.77
2022-09-20T04:50:42.122Z,66.82
2022-09-20T04:53:09.189Z,67.99
2022-09-20T04:55:45.902Z,68.03
2022-09-20T04:58:36.411Z,67.19
2022-09-20T05:01:17.046Z,67.34
2022-09-20T05:04:04.430Z,66.09
2022-09-20T05:06:31.273Z,66.33
2022-09-20T05:09:26.102Z,65.67
2022-09-20T05:12:01.923Z,65.60
2022-09-20T05:14:41.886Z,65.83
2022-09-20T05:17:21.827Z,65.05
2022-09-20T05:20:13.560Z,58.35
2022-09-20T05:23:17.769Z,55.96
2022-09-20T05:26:08.485Z,53.82
2022-09-20T05:29:02.984Z,50.71
2022-09-20T05:31:56.367Z,48.97
2022-09-20T05:34:42.834Z,47.38
2022-09-20T05:37:37.002Z,49.12
2022-09-20T05:40:25.711Z,50.66
2022-09-20T05:42:57.020Z,52.00
2022-09-20T05:45:48.321Z,51.69
2022-09-20T05:48:32.221Z,50.46
2022-09-20T05:51:03.710Z,48.72
2022-09-20T05:53:45.350Z,45.29
2022-09-20T05:56:24.313Z,44.13
2022-09-20T05:59:11.904Z,45.94
2022-09-20T06:02:01.811Z,49.39
2022-09-20T06:04:43.081Z,52.73
2022-09-20T06:07:21.100Z,52.56
2022-09-20T06:10:26.197Z,47.79
2022-09-20T06:13:08.930Z,45.70
2022-09-20T06:15:49.746Z,45.31
2022-09-20T06:18:16.553Z,44.12
2022-09-20T06:20:55.509Z,45.30
2022-09-20T06:23:22.766Z,49.00
2022-09-20T06:25:57.747Z,51.27
2022-09-20T06:28:30.262Z,53.39
2022-09-20T06:30:57.491Z,54.29
2022-09-20T06:33:26.202Z,54.08
2022-09-20T06:36:26.789Z,54.95
2022-09-20T06:39:30.894Z,56.02
2022-09-20T06:41:58.083Z,55.35
2022-09-20T06:44:26.277Z,52.85
2022-09-20T06:46:54.592Z,50.41
2022-09-20T06:49:22.589Z,47.96
2022-09-20T06:51:52.548Z,45.66
2022-09-20T06:54:22.033Z,44.66
2022-09-20T06:56:50.742Z,41.66
2022-09-20T06:59:17.669Z,41.14
2022-09-20T07:01:44.841Z,41.45
2022-09-20T07:04:11.797Z,40.59
2022-09-20T07:06:38.889Z,40.04
2022-09-20T07:09:06.319Z,40.15
2022-09-20T07:11:35.164Z,38.83
2022-09-20T07:14:02.223Z,39.85
2022-09-20T07:16:29.631Z,37.47
2022-09-20T07:18:56.975Z,36.43
2022-09-20T07:21:24.456Z,36.10
2022-09-20T07:23:51.522Z,37.16
2022-09-20T07:26:25.014Z,36.17
2022-09-20T07:28:52.238Z,35.30
2022-09-20T07:31:21.017Z,35.38
2022-09-20T07:33:47.970Z,36.39
2022-09-20T07:36:16.689Z,37.08
2022-09-20T07:38:48.703Z,37.15
2022-09-20T07:41:15.674Z,37.65
2022-09-20T07:43:42.731Z,37.91
2022-09-20T07:46:12.174Z,36.75
2022-09-20T07:48:40.231Z,36.53
2022-09-20T07:51:11.163Z,34.98
2022-09-20T07:53:38.894Z,34.83
2022-09-20T07:56:08.436Z,33.65
2022-09-20T07:58:36.278Z,33.25
2022-09-20T08:01:08.720Z,33.50
2022-09-20T08:03:36.549Z,32.31
2022-09-20T08:06:09.336Z,34.82
2022-09-20T08:08:40.718Z,30.31
2022-09-20T08:11:08.862Z,30.88
2022-09-20T08:16:24.662Z,30.77
2022-09-20T08:18:59.926Z,28.45
2022-09-20T08:21:31.181Z,29.96
2022-09-20T08:23:59.324Z,32.14
2022-09-20T08:26:28.272Z,32.30
2022-09-20T08:28:57.609Z,33.05
2022-09-20T08:31:27.184Z,33.84
2022-09-20T08:33:54.861Z,34.17
2022-09-20T08:36:24.726Z,35.49
2022-09-20T08:41:57.378Z,37.34
2022-09-20T08:44:35.415Z,34.75
2022-09-20T08:47:10.024Z,34.67
2022-09-20T08:49:38.038Z,32.73
2022-09-20T08:52:10.261Z,31.26
2022-09-20T08:54:37.504Z,31.94
2022-09-20T08:57:12.186Z,31.03
2022-09-20T08:59:40.982Z,32.50
2022-09-20T09:02:20.155Z,31.06
2022-09-20T09:04:49.948Z,31.86
2022-09-20T09:07:21.873Z,30.99
2022-09-20T09:09:52.076Z,30.15
2022-09-20T09:12:25.665Z,30.20
2022-09-20T09:14:57.464Z,29.14
2022-09-20T09:17:28.052Z,29.52
2022-09-20T09:19:57.344Z,28.63
2022-09-20T09:22:26.595Z,30.00
2022-09-20T09:25:49.792Z,28.43
2022-09-20T09:28:40.474Z,28.40
2022-09-20T09:31:23.704Z,28.32
2022-09-20T09:33:50.678Z,26.57
2022-09-20T09:36:24.392Z,26.11
2022-09-20T09:39:11.886Z,24.06
2022-09-20T09:41:38.887Z,26.18
2022-09-20T09:44:11.035Z,27.57
2022-09-20T09:46:42.729Z,27.98
2022-09-20T09:49:18.314Z,26.57
2022-09-20T09:52:05.495Z,24.91
2022-09-20T09:54:40.675Z,23.73
2022-09-20T09:57:29.120Z,24.82
2022-09-20T10:00:06.257Z,23.64
2022-09-20T10:03:04.978Z,25.29
2022-09-20T10:05:35.922Z,23.24
2022-09-20T10:08:40.210Z,23.48
2022-09-20T10:11:30.239Z,26.45
2022-09-20T10:14:29.727Z,25.77
2022-09-20T10:17:05.804Z,25.34
2022-09-20T10:19:51.171Z,25.71
2022-09-20T10:22:40.714Z,24.54
2022-09-20T10:28:32.457Z,25.07
2022-09-20T10:31:15.210Z,25.37
2022-09-20T10:34:16.104Z,26.35
2022-09-20T10:36:51.755Z,27.21
2022-09-20T10:39:38.256Z,25.99
2022-09-20T10:42:38.842Z,25.94
2022-09-20T10:45:50.844Z,25.99
2022-09-20T10:48:18.539Z,27.75
2022-09-20T10:51:07.378Z,27.14
2022-09-20T10:53:50.053Z,26.56
2022-09-20T10:56:19.704Z,24.63
2022-09-20T10:59:01.452Z,25.57
2022-09-20T11:01:34.688Z,26.63
2022-09-20T11:04:24.549Z,27.40
2022-09-20T11:07:12.794Z,26.54
2022-09-20T11:10:34.570Z,24.62
2022-09-20T11:13:08.636Z,23.99
2022-09-20T11:15:39.108Z,25.03
2022-09-20T11:18:15.062Z,24.01
2022-09-20T11:20:47.424Z,23.73
2022-09-20T11:23:22.639Z,25.11
2022-09-20T11:25:55.688Z,27.34
2022-09-20T11:28:33.397Z,26.98
2022-09-20T11:31:26.298Z,25.27
2022-09-20T11:34:00.209Z,26.52
2022-09-20T11:36:53.713Z,24.80
2022-09-20T11:39:35.771Z,24.04
2022-09-20T11:42:05.286Z,21.89
2022-09-20T11:44:35.307Z,22.08
2022-09-20T11:47:11.851Z,23.07
2022-09-20T11:49:47.668Z,26.29
2022-09-20T11:52:35.299Z,24.49
2022-09-20T11:55:23.637Z,22.86
2022-09-20T11:58:09.456Z,24.19
2022-09-20T12:00:41.462Z,24.35
2022-09-20T12:03:26.517Z,24.29
2022-09-20T12:05:58.063Z,23.66
2022-09-20T12:08:38.350Z,23.68
2022-09-20T12:11:10.303Z,24.60
2022-09-20T12:13:40.449Z,25.58
2022-09-20T12:16:34.883Z,24.50
2022-09-20T12:19:08.061Z,25.12
2022-09-20T12:21:59.776Z,24.22
2022-09-20T12:24:45.278Z,23.90
2022-09-20T12:27:41.770Z,21.84
2022-09-20T12:30:20.312Z,21.46
2022-09-20T12:32:57.392Z,22.35
2022-09-20T12:35:36.497Z,23.70
2022-09-20T12:38:21.569Z,25.74
2022-09-20T12:41:27.788Z,26.76
2022-09-20T12:43:57.733Z,25.89
2022-09-20T12:46:39.895Z,24.02
2022-09-20T12:49:48.127Z,25.03
2022-09-20T12:53:01.530Z,27.52
2022-09-20T12:55:49.672Z,26.99
2022-09-20T12:58:24.384Z,25.79
2022-09-20T13:01:00.038Z,26.05
2022-09-20T13:03:53.211Z,26.53
2022-09-20T13:06:20.163Z,26.27
2022-09-20T13:09:02.453Z,26.32
2022-09-20T13:11:43.856Z,28.57
2022-09-20T13:14:22.786Z,27.45
2022-09-20T13:16:57.717Z,28.57
2022-09-20T13:19:29.515Z,29.15
2022-09-20T13:22:18.318Z,28.81
2022-09-20T13:24:48.386Z,29.24
2022-09-20T13:27:34.536Z,28.50
2022-09-20T13:30:10.429Z,28.63
2022-09-20T13:32:41.764Z,28.88
2022-09-20T13:35:18.955Z,30.70
2022-09-20T13:38:00.305Z,29.77
2022-09-20T13:40:39.939Z,29.61
2022-09-20T13:43:43.849Z,30.34
2022-09-20T13:46:24.470Z,30.87
2022-09-20T13:49:09.326Z,30.63
2022-09-20T13:51:36.436Z,30.51
2022-09-20T13:54:29.880Z,31.04
2022-09-20T13:57:00.965Z,30.82
2022-09-20T13:59:36.688Z,31.01
2022-09-20T14:02:04.255Z,31.48
2022-09-20T14:04:31.895Z,31.13
2022-09-20T14:07:00.737Z,31.15
2022-09-20T14:09:32.976Z,30.54
2022-09-20T14:12:00.367Z,29.59
2022-09-20T14:14:28.677Z,29.39
2022-09-20T14:16:58.040Z,28.59
2022-09-20T14:19:40.647Z,27.99
2022-09-20T14:22:08.612Z,28.77
2022-09-20T14:24:37.429Z,28.30
2022-09-20T14:27:21.903Z,28.12
2022-09-20T14:29:51.215Z,27.65
2022-09-20T14:32:18.089Z,28.06
2022-09-20T14:35:23.445Z,28.94
2022-09-20T14:38:06.109Z,29.60
2022-09-20T14:40:47.920Z,29.93
2022-09-20T14:43:29.344Z,29.24
2022-09-20T14:46:01.930Z,28.55
2022-09-20T14:48:34.739Z,29.51
2022-09-20T14:51:16.525Z,29.68
2022-09-20T14:53:48.110Z,30.14
2022-09-20T14:56:16.583Z,30.51
2022-09-20T14:59:06.994Z,30.82
2022-09-20T15:01:36.201Z,31.27
2022-09-20T15:04:09.058Z,30.61
2022-09-20T15:06:40.079Z,30.36
2022-09-20T15:09:07.147Z,29.67
2022-09-20T15:11:34.220Z,30.14
2022-09-20T15:14:01.090Z,30.50
2022-09-20T15:16:29.000Z,30.69
2022-09-20T15:18:56.496Z,30.92
2022-09-20T15:21:23.890Z,30.75
2022-09-20T15:23:50.816Z,31.30
2022-09-20T15:26:20.239Z,31.91
2022-09-20T15:28:48.174Z,31.90
2022-09-20T15:31:17.220Z,31.59
2022-09-20T15:33:44.219Z,31.63
2022-09-20T15:36:11.603Z,32.03
2022-09-20T15:38:39.232Z,31.57
2022-09-20T15:41:06.424Z,31.92
2022-09-20T15:43:33.619Z,32.13
2022-09-20T15:46:17.455Z,32.01
2022-09-20T15:48:44.347Z,32.32
2022-09-20T15:51:12.676Z,32.20
2022-09-20T15:53:49.411Z,32.54
2022-09-20T15:56:22.287Z,32.17
2022-09-20T15:58:59.121Z,32.54
2022-09-20T16:01:28.225Z,32.70
2022-09-20T16:03:56.421Z,32.93
2022-09-20T16:06:24.027Z,33.09
2022-09-20T16:08:51.994Z,33.09
2022-09-20T16:11:22.970Z,33.34
2022-09-20T16:13:58.222Z,33.54
2022-09-20T16:16:27.070Z,33.86
2022-09-20T16:19:12.810Z,33.82
2022-09-20T16:21:42.698Z,33.96
2022-09-20T16:24:12.722Z,34.09
2022-09-20T16:26:40.476Z,33.92
2022-09-20T16:29:07.830Z,33.87
2022-09-20T16:31:41.865Z,34.20
2022-09-20T16:34:19.459Z,34.63
2022-09-20T16:36:47.521Z,34.66
2022-09-20T16:39:15.852Z,34.54
2022-09-20T16:41:45.403Z,34.55
2022-09-20T16:44:13.245Z,35.00
2022-09-20T16:46:40.658Z,35.11
2022-09-20T16:49:09.765Z,35.62
2022-09-20T16:51:38.808Z,35.56
2022-09-20T16:54:10.818Z,35.06
2022-09-20T16:56:39.641Z,35.56
2022-09-20T16:59:07.661Z,36.09
2022-09-20T17:01:37.719Z,36.22
2022-09-20T17:04:05.859Z,36.29
2022-09-20T17:06:35.156Z,36.42
2022-09-20T17:09:03.330Z,36.77
2022-09-20T17:11:33.274Z,37.07
2022-09-20T17:14:00.346Z,37.23
2022-09-20T17:16:30.221Z,37.71
2022-09-20T17:18:59.049Z,39.29
2022-09-20T17:21:27.203Z,39.18
2022-09-20T17:23:56.726Z,38.67
2022-09-20T17:26:40.358Z,38.17
2022-09-20T17:29:10.404Z,39.12
2022-09-20T17:31:39.745Z,39.80
2022-09-20T17:34:09.601Z,40.77
2022-09-20T17:36:42.091Z,41.36
2022-09-20T17:39:12.314Z,41.76
2022-09-20T17:41:41.130Z,42.23
2022-09-20T17:44:08.634Z,42.04
2022-09-20T17:46:37.931Z,41.77
2022-09-20T17:49:13.661Z,42.01
2022-09-20T17:51:46.722Z,41.36
2022-09-20T17:54:14.490Z,41.16
2022-09-20T17:56:43.739Z,40.14
2022-09-20T17:59:12.066Z,40.22
2022-09-20T18:01:40.385Z,40.66
2022-09-20T18:04:08.926Z,40.77
2022-09-20T18:06:47.620Z,42.03
2022-09-20T18:09:17.347Z,42.56
2022-09-20T18:11:49.969Z,42.94
2022-09-20T18:14:18.854Z,43.10
2022-09-20T18:16:46.717Z,42.71
2022-09-20T18:19:16.336Z,41.84
2022-09-20T18:21:43.979Z,41.47
2022-09-20T18:24:12.155Z,42.15
2022-09-20T18:26:40.079Z,42.27
2022-09-20T18:29:17.852Z,41.57
2022-09-20T18:31:54.441Z,41.76
2022-09-20T18:34:23.591Z,41.98
2022-09-20T18:36:53.436Z,41.14
2022-09-20T18:39:25.446Z,41.96
2022-09-20T18:41:53.394Z,42.03
2022-09-20T18:44:23.994Z,41.97
2022-09-20T18:46:55.381Z,42.68
2022-09-20T18:49:22.732Z,42.86
2022-09-20T18:51:50.113Z,42.41
2022-09-20T18:54:17.833Z,41.90
2022-09-20T18:56:47.826Z,43.60
2022-09-20T18:59:14.912Z,43.34
2022-09-20T19:01:51.025Z,43.23
2022-09-20T19:04:39.225Z,43.35
2022-09-20T19:07:27.119Z,44.62
2022-09-20T19:10:06.163Z,44.67
2022-09-20T19:12:51.468Z,44.77
2022-09-20T19:15:36.904Z,44.00
2022-09-20T19:18:24.173Z,43.69
2022-09-20T19:21:06.662Z,44.22
2022-09-20T19:24:02.958Z,45.75
2022-09-20T19:26:32.414Z,45.70
2022-09-20T19:29:00.315Z,45.40
2022-09-20T19:31:32.850Z,45.07
2022-09-20T19:34:03.206Z,45.23
2022-09-20T19:36:42.267Z,44.84
2022-09-20T19:39:20.741Z,44.67
2022-09-20T19:41:54.006Z,44.70
2022-09-20T19:44:32.509Z,45.61
2022-09-20T19:47:39.291Z,46.41
2022-09-20T19:50:27.947Z,46.83
2022-09-20T19:52:58.318Z,47.13
2022-09-20T19:55:25.594Z,47.02
2022-09-20T19:57:53.494Z,46.87
2022-09-20T20:00:21.678Z,47.24
2022-09-20T20:02:49.226Z,45.99
2022-09-20T20:05:25.590Z,46.04
2022-09-20T20:08:05.628Z,47.36
2022-09-20T20:10:50.449Z,47.46
2022-09-20T20:14:03.238Z,48.21
2022-09-20T20:16:35.926Z,46.82
2022-09-20T20:19:15.059Z,46.99
2022-09-20T20:21:47.984Z,49.19
2022-09-20T20:24:21.271Z,49.53
2022-09-20T20:26:48.302Z,52.65
2022-09-20T20:29:15.250Z,53.24
2022-09-20T20:31:42.164Z,51.78
2022-09-20T20:34:09.206Z,52.10
2022-09-20T20:36:36.056Z,52.02
2022-09-20T20:39:02.942Z,51.18
2022-09-20T20:41:31.953Z,51.62
2022-09-20T20:43:59.007Z,51.38
2022-09-20T20:46:26.078Z,50.62
2022-09-20T20:48:53.120Z,50.73
2022-09-20T20:51:21.852Z,50.67
2022-09-20T20:53:54.005Z,49.73
2022-09-20T20:56:25.988Z,49.03
2022-09-20T20:58:53.760Z,49.16
2022-09-20T21:01:23.713Z,49.76
2022-09-20T21:03:56.120Z,49.73
2022-09-20T21:06:26.027Z,50.17
2022-09-20T21:08:53.394Z,50.04
2022-09-20T21:11:32.780Z,50.63
2022-09-20T21:14:02.134Z,51.08
2022-09-20T21:16:35.851Z,50.87
2022-09-20T21:19:05.113Z,50.61
2022-09-20T21:21:38.972Z,50.78
2022-09-20T21:24:10.106Z,50.24
2022-09-20T21:26:38.249Z,51.00
2022-09-20T21:29:08.123Z,51.19
2022-09-20T21:31:38.043Z,50.84
2022-09-20T21:34:09.248Z,49.98
2022-09-20T21:36:38.869Z,51.22
2022-09-20T21:39:06.495Z,53.47
2022-09-20T21:41:36.211Z,55.39
2022-09-20T21:44:04.660Z,55.98
2022-09-20T21:46:37.316Z,54.46
2022-09-20T21:49:08.023Z,53.75
2022-09-20T21:51:35.639Z,55.80
2022-09-20T21:54:03.968Z,55.46
2022-09-20T21:56:36.358Z,54.90
2022-09-20T21:59:04.574Z,54.19
2022-09-20T22:01:34.656Z,54.93
2022-09-20T22:04:05.947Z,54.31
2022-09-20T22:06:35.793Z,54.78
2022-09-20T22:09:06.477Z,55.15
2022-09-20T22:11:41.183Z,54.63
2022-09-20T22:14:09.902Z,54.16
2022-09-20T22:16:39.873Z,54.42
2022-09-20T22:19:09.827Z,53.70
2022-09-20T22:21:39.709Z,54.10
2022-09-20T22:24:08.694Z,54.31
2022-09-20T22:26:37.641Z,53.66
2022-09-20T22:29:06.585Z,55.08
2022-09-20T22:31:36.621Z,56.38
2022-09-20T22:34:06.343Z,56.54
2022-09-20T22:36:41.337Z,56.58
2022-09-20T22:39:09.960Z,55.35
2022-09-20T22:41:38.938Z,53.73
2022-09-20T22:44:06.324Z,54.34
2022-09-20T22:46:34.097Z,53.88
2022-09-20T22:49:01.223Z,53.94
2022-09-20T22:51:31.466Z,53.68
2022-09-20T22:53:58.318Z,53.52
2022-09-20T22:56:30.096Z,54.05
2022-09-20T22:59:03.827Z,53.72
2022-09-20T23:01:33.653Z,53.29
2022-09-20T23:04:07.872Z,54.57
2022-09-20T23:06:40.861Z,55.65
2022-09-20T23:09:10.979Z,56.51
2022-09-20T23:11:39.801Z,57.46
2022-09-20T23:14:06.962Z,57.19
2022-09-20T23:16:36.657Z,56.67
2022-09-20T23:19:05.748Z,56.00
2022-09-20T23:21:34.130Z,58.27
2022-09-20T23:24:03.089Z,59.46
2022-09-20T23:26:32.590Z,59.68
2022-09-20T23:29:07.676Z,59.41
2022-09-20T23:31:37.138Z,59.55
2022-09-20T23:34:06.630Z,58.25
2022-09-20T23:36:38.127Z,56.39
2022-09-20T23:39:06.670Z,55.76
2022-09-20T23:41:34.244Z,55.17
2022-09-20T23:44:01.269Z,56.13
2022-09-20T23:46:28.245Z,58.03
2022-09-20T23:48:55.165Z,60.34
2022-09-20T23:51:24.641Z,62.12
2022-09-20T23:53:52.858Z,61.38
2022-09-20T23:56:21.672Z,62.61
2022-09-20T23:58:49.239Z,62.19
